sensor_id;sensor_type;location;lat;lon;timestamp;P1;durP1;ratioP1;P2;durP2;ratioP2
65375;SDS011;51976;47.332;9.404;2024-02-21T00:00:40;0.75;;;0.40;;
65375;SDS011;51976;47.332;9.404;2024-02-21T00:03:06;2.78;;;1.00;;
65375;SDS011;51976;47.332;9.404;2024-02-21T00:05:32;1.13;;;0.57;;
65375;SDS011;51976;47.332;9.404;2024-02-21T00:07:58;1.50;;;0.80;;
65375;SDS011;51976;47.332;9.404;2024-02-21T00:10:24;1.08;;;0.50;;
65375;SDS011;51976;47.332;9.404;2024-02-21T00:12:50;1.00;;;0.38;;
65375;SDS011;51976;47.332;9.404;2024-02-21T00:15:16;2.55;;;0.60;;
65375;SDS011;51976;47.332;9.404;2024-02-21T00:17:42;1.40;;;0.50;;
65375;SDS011;51976;47.332;9.404;2024-02-21T00:20:08;1.92;;;0.70;;
65375;SDS011;51976;47.332;9.404;2024-02-21T00:22:34;1.25;;;0.52;;
65375;SDS011;51976;47.332;9.404;2024-02-21T00:24:59;1.35;;;0.50;;
65375;SDS011;51976;47.332;9.404;2024-02-21T00:27:25;1.00;;;0.40;;
65375;SDS011;51976;47.332;9.404;2024-02-21T00:29:50;1.75;;;0.60;;
65375;SDS011;51976;47.332;9.404;2024-02-21T00:32:16;1.42;;;0.65;;
65375;SDS011;51976;47.332;9.404;2024-02-21T00:34:41;1.15;;;0.63;;
65375;SDS011;51976;47.332;9.404;2024-02-21T00:37:07;1.65;;;0.57;;
65375;SDS011;51976;47.332;9.404;2024-02-21T00:39:32;1.45;;;0.60;;
65375;SDS011;51976;47.332;9.404;2024-02-21T00:41:57;1.48;;;0.60;;
65375;SDS011;51976;47.332;9.404;2024-02-21T00:44:23;1.40;;;0.60;;
65375;SDS011;51976;47.332;9.404;2024-02-21T00:46:48;1.63;;;0.70;;
65375;SDS011;51976;47.332;9.404;2024-02-21T00:49:14;2.55;;;0.60;;
65375;SDS011;51976;47.332;9.404;2024-02-21T00:51:39;2.00;;;0.60;;
65375;SDS011;51976;47.332;9.404;2024-02-21T00:54:04;1.42;;;0.60;;
65375;SDS011;51976;47.332;9.404;2024-02-21T00:56:31;2.17;;;0.75;;
65375;SDS011;51976;47.332;9.404;2024-02-21T00:58:56;1.77;;;0.60;;
65375;SDS011;51976;47.332;9.404;2024-02-21T01:01:22;0.98;;;0.40;;
65375;SDS011;51976;47.332;9.404;2024-02-21T01:03:49;2.30;;;0.60;;
65375;SDS011;51976;47.332;9.404;2024-02-21T01:06:14;1.17;;;0.40;;
65375;SDS011;51976;47.332;9.404;2024-02-21T01:08:40;2.63;;;0.70;;
65375;SDS011;51976;47.332;9.404;2024-02-21T01:11:05;0.77;;;0.50;;
65375;SDS011;51976;47.332;9.404;2024-02-21T01:13:30;1.15;;;0.63;;
65375;SDS011;51976;47.332;9.404;2024-02-21T01:15:56;1.10;;;0.50;;
65375;SDS011;51976;47.332;9.404;2024-02-21T01:18:21;1.70;;;0.80;;
65375;SDS011;51976;47.332;9.404;2024-02-21T01:20:47;1.40;;;0.65;;
65375;SDS011;51976;47.332;9.404;2024-02-21T01:23:12;1.25;;;0.70;;
65375;SDS011;51976;47.332;9.404;2024-02-21T01:25:38;4.18;;;1.08;;
65375;SDS011;51976;47.332;9.404;2024-02-21T01:28:03;2.95;;;0.60;;
65375;SDS011;51976;47.332;9.404;2024-02-21T01:30:29;0.70;;;0.43;;
65375;SDS011;51976;47.332;9.404;2024-02-21T01:32:54;0.77;;;0.35;;
65375;SDS011;51976;47.332;9.404;2024-02-21T01:35:22;1.63;;;0.70;;
65375;SDS011;51976;47.332;9.404;2024-02-21T01:37:48;0.57;;;0.38;;
65375;SDS011;51976;47.332;9.404;2024-02-21T01:40:14;1.42;;;0.43;;
65375;SDS011;51976;47.332;9.404;2024-02-21T01:42:40;1.05;;;0.43;;
65375;SDS011;51976;47.332;9.404;2024-02-21T01:45:06;2.13;;;0.45;;
65375;SDS011;51976;47.332;9.404;2024-02-21T01:47:31;1.15;;;0.65;;
65375;SDS011;51976;47.332;9.404;2024-02-21T01:49:57;0.65;;;0.40;;
65375;SDS011;51976;47.332;9.404;2024-02-21T01:52:23;2.03;;;0.50;;
65375;SDS011;51976;47.332;9.404;2024-02-21T01:54:48;1.52;;;0.43;;
65375;SDS011;51976;47.332;9.404;2024-02-21T01:57:14;1.35;;;0.50;;
65375;SDS011;51976;47.332;9.404;2024-02-21T01:59:40;1.67;;;0.50;;
65375;SDS011;51976;47.332;9.404;2024-02-21T02:02:06;2.65;;;0.80;;
65375;SDS011;51976;47.332;9.404;2024-02-21T02:04:31;2.33;;;0.73;;
65375;SDS011;51976;47.332;9.404;2024-02-21T02:06:57;1.45;;;0.57;;
65375;SDS011;51976;47.332;9.404;2024-02-21T02:09:27;0.95;;;0.40;;
65375;SDS011;51976;47.332;9.404;2024-02-21T02:11:53;79.90;;;26.98;;
65375;SDS011;51976;47.332;9.404;2024-02-21T02:14:18;72.45;;;24.85;;
65375;SDS011;51976;47.332;9.404;2024-02-21T02:16:46;55.08;;;20.13;;
65375;SDS011;51976;47.332;9.404;2024-02-21T02:19:12;82.50;;;29.10;;
65375;SDS011;51976;47.332;9.404;2024-02-21T02:21:39;62.97;;;23.67;;
65375;SDS011;51976;47.332;9.404;2024-02-21T02:24:07;33.33;;;12.63;;
65375;SDS011;51976;47.332;9.404;2024-02-21T02:26:33;10.23;;;4.65;;
65375;SDS011;51976;47.332;9.404;2024-02-21T02:29:00;6.40;;;2.42;;
65375;SDS011;51976;47.332;9.404;2024-02-21T02:31:27;4.80;;;2.00;;
65375;SDS011;51976;47.332;9.404;2024-02-21T02:33:52;2.17;;;1.25;;
65375;SDS011;51976;47.332;9.404;2024-02-21T02:36:18;1.73;;;1.13;;
65375;SDS011;51976;47.332;9.404;2024-02-21T02:38:43;2.88;;;0.80;;
65375;SDS011;51976;47.332;9.404;2024-02-21T02:41:09;2.25;;;0.57;;
65375;SDS011;51976;47.332;9.404;2024-02-21T02:43:34;1.08;;;0.50;;
65375;SDS011;51976;47.332;9.404;2024-02-21T02:46:03;1.20;;;0.40;;
65375;SDS011;51976;47.332;9.404;2024-02-21T02:48:29;2.70;;;0.55;;
65375;SDS011;51976;47.332;9.404;2024-02-21T02:50:54;2.40;;;0.38;;
65375;SDS011;51976;47.332;9.404;2024-02-21T02:53:20;1.52;;;0.45;;
65375;SDS011;51976;47.332;9.404;2024-02-21T02:55:45;3.03;;;0.30;;
65375;SDS011;51976;47.332;9.404;2024-02-21T02:58:10;2.60;;;0.47;;
65375;SDS011;51976;47.332;9.404;2024-02-21T03:00:36;1.85;;;0.40;;
65375;SDS011;51976;47.332;9.404;2024-02-21T03:03:01;0.40;;;0.22;;
65375;SDS011;51976;47.332;9.404;2024-02-21T03:05:30;0.98;;;0.43;;
65375;SDS011;51976;47.332;9.404;2024-02-21T03:07:58;0.90;;;0.20;;
65375;SDS011;51976;47.332;9.404;2024-02-21T03:10:24;1.40;;;0.47;;
65375;SDS011;51976;47.332;9.404;2024-02-21T03:12:49;0.22;;;0.15;;
65375;SDS011;51976;47.332;9.404;2024-02-21T03:15:17;2.17;;;0.20;;
65375;SDS011;51976;47.332;9.404;2024-02-21T03:17:43;2.35;;;0.45;;
65375;SDS011;51976;47.332;9.404;2024-02-21T03:20:08;1.13;;;0.30;;
65375;SDS011;51976;47.332;9.404;2024-02-21T03:22:34;0.60;;;0.30;;
65375;SDS011;51976;47.332;9.404;2024-02-21T03:25:03;0.68;;;0.30;;
65375;SDS011;51976;47.332;9.404;2024-02-21T03:27:29;0.65;;;0.20;;
65375;SDS011;51976;47.332;9.404;2024-02-21T03:29:54;0.30;;;0.20;;
65375;SDS011;51976;47.332;9.404;2024-02-21T03:32:20;0.57;;;0.20;;
65375;SDS011;51976;47.332;9.404;2024-02-21T03:34:45;1.20;;;0.30;;
65375;SDS011;51976;47.332;9.404;2024-02-21T03:37:13;2.63;;;0.47;;
65375;SDS011;51976;47.332;9.404;2024-02-21T03:39:39;2.15;;;0.40;;
65375;SDS011;51976;47.332;9.404;2024-02-21T03:42:04;2.90;;;0.30;;
65375;SDS011;51976;47.332;9.404;2024-02-21T03:44:30;2.78;;;0.30;;
65375;SDS011;51976;47.332;9.404;2024-02-21T03:46:57;2.03;;;0.85;;
65375;SDS011;51976;47.332;9.404;2024-02-21T03:49:22;2.58;;;1.30;;
65375;SDS011;51976;47.332;9.404;2024-02-21T03:51:48;2.10;;;0.82;;
65375;SDS011;51976;47.332;9.404;2024-02-21T03:54:13;1.95;;;0.60;;
65375;SDS011;51976;47.332;9.404;2024-02-21T03:56:38;1.40;;;0.70;;
65375;SDS011;51976;47.332;9.404;2024-02-21T03:59:05;1.30;;;0.45;;
65375;SDS011;51976;47.332;9.404;2024-02-21T04:01:31;1.52;;;0.50;;
65375;SDS011;51976;47.332;9.404;2024-02-21T04:03:57;0.60;;;0.25;;
65375;SDS011;51976;47.332;9.404;2024-02-21T04:06:22;7.07;;;0.55;;
65375;SDS011;51976;47.332;9.404;2024-02-21T04:08:47;4.22;;;0.63;;
65375;SDS011;51976;47.332;9.404;2024-02-21T04:11:13;1.65;;;0.38;;
65375;SDS011;51976;47.332;9.404;2024-02-21T04:13:38;0.65;;;0.30;;
65375;SDS011;51976;47.332;9.404;2024-02-21T04:16:04;1.15;;;0.38;;
65375;SDS011;51976;47.332;9.404;2024-02-21T04:18:30;2.08;;;1.27;;
65375;SDS011;51976;47.332;9.404;2024-02-21T04:20:56;0.47;;;0.17;;
65375;SDS011;51976;47.332;9.404;2024-02-21T04:23:21;0.73;;;0.28;;
65375;SDS011;51976;47.332;9.404;2024-02-21T04:25:47;0.63;;;0.20;;
65375;SDS011;51976;47.332;9.404;2024-02-21T04:28:12;0.82;;;0.30;;
65375;SDS011;51976;47.332;9.404;2024-02-21T04:30:38;0.88;;;0.30;;
65375;SDS011;51976;47.332;9.404;2024-02-21T04:33:03;0.68;;;0.20;;
65375;SDS011;51976;47.332;9.404;2024-02-21T04:35:28;0.65;;;0.10;;
65375;SDS011;51976;47.332;9.404;2024-02-21T04:37:54;0.43;;;0.22;;
65375;SDS011;51976;47.332;9.404;2024-02-21T04:40:20;0.75;;;0.30;;
65375;SDS011;51976;47.332;9.404;2024-02-21T04:42:45;1.65;;;0.32;;
65375;SDS011;51976;47.332;9.404;2024-02-21T04:45:13;0.80;;;0.20;;
65375;SDS011;51976;47.332;9.404;2024-02-21T04:47:39;0.50;;;0.28;;
65375;SDS011;51976;47.332;9.404;2024-02-21T04:50:04;0.77;;;0.30;;
65375;SDS011;51976;47.332;9.404;2024-02-21T04:52:31;0.73;;;0.30;;
65375;SDS011;51976;47.332;9.404;2024-02-21T04:54:56;1.48;;;0.43;;
65375;SDS011;51976;47.332;9.404;2024-02-21T04:57:22;1.08;;;0.40;;
65375;SDS011;51976;47.332;9.404;2024-02-21T04:59:47;1.75;;;0.52;;
65375;SDS011;51976;47.332;9.404;2024-02-21T05:02:13;2.17;;;0.75;;
65375;SDS011;51976;47.332;9.404;2024-02-21T05:04:39;6.57;;;2.38;;
65375;SDS011;51976;47.332;9.404;2024-02-21T05:07:06;6.13;;;2.53;;
65375;SDS011;51976;47.332;9.404;2024-02-21T05:09:31;4.72;;;2.00;;
65375;SDS011;51976;47.332;9.404;2024-02-21T05:11:57;6.38;;;2.80;;
65375;SDS011;51976;47.332;9.404;2024-02-21T05:14:25;6.22;;;3.38;;
65375;SDS011;51976;47.332;9.404;2024-02-21T05:16:52;4.68;;;2.08;;
65375;SDS011;51976;47.332;9.404;2024-02-21T05:19:17;2.75;;;1.50;;
65375;SDS011;51976;47.332;9.404;2024-02-21T05:21:42;2.15;;;0.75;;
65375;SDS011;51976;47.332;9.404;2024-02-21T05:24:08;2.47;;;1.20;;
65375;SDS011;51976;47.332;9.404;2024-02-21T05:26:33;2.05;;;0.77;;
65375;SDS011;51976;47.332;9.404;2024-02-21T05:28:59;4.70;;;1.88;;
65375;SDS011;51976;47.332;9.404;2024-02-21T05:31:24;2.05;;;0.90;;
65375;SDS011;51976;47.332;9.404;2024-02-21T05:33:50;2.80;;;1.17;;
65375;SDS011;51976;47.332;9.404;2024-02-21T05:36:15;3.03;;;1.38;;
65375;SDS011;51976;47.332;9.404;2024-02-21T05:38:41;7.72;;;1.70;;
65375;SDS011;51976;47.332;9.404;2024-02-21T05:41:06;3.33;;;1.52;;
65375;SDS011;51976;47.332;9.404;2024-02-21T05:43:32;3.13;;;0.80;;
65375;SDS011;51976;47.332;9.404;2024-02-21T05:45:57;5.28;;;1.58;;
65375;SDS011;51976;47.332;9.404;2024-02-21T05:48:23;5.25;;;1.48;;
65375;SDS011;51976;47.332;9.404;2024-02-21T05:50:49;2.08;;;1.30;;
65375;SDS011;51976;47.332;9.404;2024-02-21T05:53:15;2.47;;;1.15;;
65375;SDS011;51976;47.332;9.404;2024-02-21T05:55:40;3.53;;;1.35;;
65375;SDS011;51976;47.332;9.404;2024-02-21T05:58:05;2.13;;;1.40;;
65375;SDS011;51976;47.332;9.404;2024-02-21T06:00:31;4.10;;;1.60;;
65375;SDS011;51976;47.332;9.404;2024-02-21T06:02:57;4.22;;;1.33;;
65375;SDS011;51976;47.332;9.404;2024-02-21T06:05:23;2.92;;;1.45;;
65375;SDS011;51976;47.332;9.404;2024-02-21T06:07:48;5.60;;;1.20;;
65375;SDS011;51976;47.332;9.404;2024-02-21T06:10:14;3.92;;;1.20;;
65375;SDS011;51976;47.332;9.404;2024-02-21T06:12:39;4.88;;;1.90;;
65375;SDS011;51976;47.332;9.404;2024-02-21T06:15:05;4.65;;;2.58;;
65375;SDS011;51976;47.332;9.404;2024-02-21T06:17:31;4.50;;;2.78;;
65375;SDS011;51976;47.332;9.404;2024-02-21T06:19:56;6.60;;;2.88;;
65375;SDS011;51976;47.332;9.404;2024-02-21T06:22:22;4.32;;;2.30;;
65375;SDS011;51976;47.332;9.404;2024-02-21T06:24:47;3.67;;;2.20;;
65375;SDS011;51976;47.332;9.404;2024-02-21T06:27:12;4.43;;;2.15;;
65375;SDS011;51976;47.332;9.404;2024-02-21T06:29:40;4.63;;;2.70;;
65375;SDS011;51976;47.332;9.404;2024-02-21T06:32:05;4.38;;;2.38;;
65375;SDS011;51976;47.332;9.404;2024-02-21T06:34:31;4.25;;;3.00;;
65375;SDS011;51976;47.332;9.404;2024-02-21T06:36:57;10.00;;;3.13;;
65375;SDS011;51976;47.332;9.404;2024-02-21T06:39:22;5.47;;;2.60;;
65375;SDS011;51976;47.332;9.404;2024-02-21T06:41:48;4.53;;;2.45;;
65375;SDS011;51976;47.332;9.404;2024-02-21T06:44:15;7.50;;;3.05;;
65375;SDS011;51976;47.332;9.404;2024-02-21T06:46:41;4.50;;;3.15;;
65375;SDS011;51976;47.332;9.404;2024-02-21T06:49:06;5.60;;;4.25;;
65375;SDS011;51976;47.332;9.404;2024-02-21T06:51:32;10.52;;;3.88;;
65375;SDS011;51976;47.332;9.404;2024-02-21T06:53:58;8.40;;;4.20;;
65375;SDS011;51976;47.332;9.404;2024-02-21T06:56:23;6.75;;;3.45;;
65375;SDS011;51976;47.332;9.404;2024-02-21T06:58:56;6.53;;;3.30;;
65375;SDS011;51976;47.332;9.404;2024-02-21T07:01:21;19.55;;;3.97;;
65375;SDS011;51976;47.332;9.404;2024-02-21T07:03:47;7.10;;;3.35;;
65375;SDS011;51976;47.332;9.404;2024-02-21T07:06:12;6.88;;;3.38;;
65375;SDS011;51976;47.332;9.404;2024-02-21T07:08:41;7.20;;;3.55;;
65375;SDS011;51976;47.332;9.404;2024-02-21T07:11:06;5.70;;;3.58;;
65375;SDS011;51976;47.332;9.404;2024-02-21T07:13:32;7.82;;;3.45;;
65375;SDS011;51976;47.332;9.404;2024-02-21T07:15:59;7.38;;;3.97;;
65375;SDS011;51976;47.332;9.404;2024-02-21T07:18:24;8.68;;;4.75;;
65375;SDS011;51976;47.332;9.404;2024-02-21T07:20:52;7.78;;;4.28;;
65375;SDS011;51976;47.332;9.404;2024-02-21T07:23:18;8.60;;;4.05;;
65375;SDS011;51976;47.332;9.404;2024-02-21T07:25:44;8.60;;;3.63;;
65375;SDS011;51976;47.332;9.404;2024-02-21T07:28:10;8.25;;;2.85;;
65375;SDS011;51976;47.332;9.404;2024-02-21T07:30:35;3.55;;;1.88;;
65375;SDS011;51976;47.332;9.404;2024-02-21T07:33:03;5.78;;;1.70;;
65375;SDS011;51976;47.332;9.404;2024-02-21T07:35:32;2.42;;;1.45;;
65375;SDS011;51976;47.332;9.404;2024-02-21T07:37:58;3.28;;;1.40;;
65375;SDS011;51976;47.332;9.404;2024-02-21T07:40:23;2.95;;;1.55;;
65375;SDS011;51976;47.332;9.404;2024-02-21T07:42:49;2.75;;;1.17;;
65375;SDS011;51976;47.332;9.404;2024-02-21T07:45:23;4.88;;;1.60;;
65375;SDS011;51976;47.332;9.404;2024-02-21T07:47:49;4.55;;;1.40;;
65375;SDS011;51976;47.332;9.404;2024-02-21T07:50:18;4.28;;;1.92;;
65375;SDS011;51976;47.332;9.404;2024-02-21T07:53:02;5.13;;;1.88;;
65375;SDS011;51976;47.332;9.404;2024-02-21T07:55:27;2.70;;;1.58;;
65375;SDS011;51976;47.332;9.404;2024-02-21T07:57:54;5.53;;;2.78;;
65375;SDS011;51976;47.332;9.404;2024-02-21T08:00:20;6.40;;;3.03;;
65375;SDS011;51976;47.332;9.404;2024-02-21T08:02:46;6.43;;;3.63;;
65375;SDS011;51976;47.332;9.404;2024-02-21T08:05:18;6.45;;;2.38;;
65375;SDS011;51976;47.332;9.404;2024-02-21T08:07:44;4.05;;;1.83;;
65375;SDS011;51976;47.332;9.404;2024-02-21T08:10:10;4.95;;;2.35;;
65375;SDS011;51976;47.332;9.404;2024-02-21T08:12:36;7.22;;;3.67;;
65375;SDS011;51976;47.332;9.404;2024-02-21T08:15:02;5.63;;;3.40;;
65375;SDS011;51976;47.332;9.404;2024-02-21T08:17:33;9.60;;;4.72;;
65375;SDS011;51976;47.332;9.404;2024-02-21T08:20:17;6.88;;;2.97;;
65375;SDS011;51976;47.332;9.404;2024-02-21T08:22:43;3.53;;;1.88;;
65375;SDS011;51976;47.332;9.404;2024-02-21T08:25:08;4.93;;;2.65;;
65375;SDS011;51976;47.332;9.404;2024-02-21T08:27:34;4.93;;;2.38;;
65375;SDS011;51976;47.332;9.404;2024-02-21T08:29:59;6.43;;;2.28;;
65375;SDS011;51976;47.332;9.404;2024-02-21T08:32:24;6.22;;;2.88;;
65375;SDS011;51976;47.332;9.404;2024-02-21T08:34:51;6.38;;;3.17;;
65375;SDS011;51976;47.332;9.404;2024-02-21T08:37:19;4.45;;;2.60;;
65375;SDS011;51976;47.332;9.404;2024-02-21T08:39:44;7.95;;;3.35;;
65375;SDS011;51976;47.332;9.404;2024-02-21T08:42:10;13.60;;;5.60;;
65375;SDS011;51976;47.332;9.404;2024-02-21T08:44:35;14.55;;;6.57;;
65375;SDS011;51976;47.332;9.404;2024-02-21T08:47:05;7.80;;;3.88;;
65375;SDS011;51976;47.332;9.404;2024-02-21T08:49:33;10.40;;;4.60;;
65375;SDS011;51976;47.332;9.404;2024-02-21T08:51:58;13.00;;;6.28;;
65375;SDS011;51976;47.332;9.404;2024-02-21T08:54:23;18.90;;;8.75;;
65375;SDS011;51976;47.332;9.404;2024-02-21T08:56:52;19.65;;;10.25;;
65375;SDS011;51976;47.332;9.404;2024-02-21T08:59:20;18.00;;;9.65;;
65375;SDS011;51976;47.332;9.404;2024-02-21T09:01:46;18.13;;;10.55;;
65375;SDS011;51976;47.332;9.404;2024-02-21T09:04:12;16.80;;;7.32;;
65375;SDS011;51976;47.332;9.404;2024-02-21T09:06:38;20.92;;;11.60;;
65375;SDS011;51976;47.332;9.404;2024-02-21T09:09:07;22.95;;;8.23;;
65375;SDS011;51976;47.332;9.404;2024-02-21T09:11:36;14.07;;;7.25;;
65375;SDS011;51976;47.332;9.404;2024-02-21T09:14:02;13.23;;;6.43;;
65375;SDS011;51976;47.332;9.404;2024-02-21T09:16:30;11.30;;;6.53;;
65375;SDS011;51976;47.332;9.404;2024-02-21T09:18:58;10.75;;;5.38;;
65375;SDS011;51976;47.332;9.404;2024-02-21T09:21:23;6.38;;;2.83;;
65375;SDS011;51976;47.332;9.404;2024-02-21T09:23:49;11.43;;;3.17;;
65375;SDS011;51976;47.332;9.404;2024-02-21T09:26:14;7.85;;;3.40;;
65375;SDS011;51976;47.332;9.404;2024-02-21T09:28:42;6.82;;;2.47;;
65375;SDS011;51976;47.332;9.404;2024-02-21T09:31:10;5.03;;;2.90;;
65375;SDS011;51976;47.332;9.404;2024-02-21T09:33:35;6.85;;;3.58;;
65375;SDS011;51976;47.332;9.404;2024-02-21T09:36:03;6.88;;;3.55;;
65375;SDS011;51976;47.332;9.404;2024-02-21T09:38:31;4.90;;;2.00;;
65375;SDS011;51976;47.332;9.404;2024-02-21T09:41:03;5.00;;;2.40;;
65375;SDS011;51976;47.332;9.404;2024-02-21T09:43:35;2.47;;;0.90;;
65375;SDS011;51976;47.332;9.404;2024-02-21T09:46:05;1.45;;;0.75;;
65375;SDS011;51976;47.332;9.404;2024-02-21T09:51:41;3.03;;;1.30;;
65375;SDS011;51976;47.332;9.404;2024-02-21T09:54:08;1.67;;;0.73;;
65375;SDS011;51976;47.332;9.404;2024-02-21T09:56:34;2.42;;;0.77;;
65375;SDS011;51976;47.332;9.404;2024-02-21T09:59:06;2.42;;;0.50;;
65375;SDS011;51976;47.332;9.404;2024-02-21T10:01:36;4.55;;;0.80;;
65375;SDS011;51976;47.332;9.404;2024-02-21T10:04:04;1.08;;;0.50;;
65375;SDS011;51976;47.332;9.404;2024-02-21T10:06:30;2.53;;;1.05;;
65375;SDS011;51976;47.332;9.404;2024-02-21T10:08:57;2.03;;;0.80;;
65375;SDS011;51976;47.332;9.404;2024-02-21T10:11:23;3.63;;;1.00;;
65375;SDS011;51976;47.332;9.404;2024-02-21T10:13:51;4.68;;;0.90;;
65375;SDS011;51976;47.332;9.404;2024-02-21T10:16:30;2.70;;;0.80;;
65375;SDS011;51976;47.332;9.404;2024-02-21T10:18:58;2.50;;;0.63;;
65375;SDS011;51976;47.332;9.404;2024-02-21T10:21:23;2.25;;;1.05;;
65375;SDS011;51976;47.332;9.404;2024-02-21T10:23:49;0.75;;;0.38;;
65375;SDS011;51976;47.332;9.404;2024-02-21T10:26:16;1.85;;;0.50;;
65375;SDS011;51976;47.332;9.404;2024-02-21T10:28:43;1.65;;;0.40;;
65375;SDS011;51976;47.332;9.404;2024-02-21T10:31:11;1.55;;;0.57;;
65375;SDS011;51976;47.332;9.404;2024-02-21T10:33:53;2.20;;;0.55;;
65375;SDS011;51976;47.332;9.404;2024-02-21T10:36:22;1.90;;;0.80;;
65375;SDS011;51976;47.332;9.404;2024-02-21T10:38:52;6.40;;;0.85;;
65375;SDS011;51976;47.332;9.404;2024-02-21T10:41:19;2.67;;;1.05;;
65375;SDS011;51976;47.332;9.404;2024-02-21T10:43:49;2.75;;;0.68;;
65375;SDS011;51976;47.332;9.404;2024-02-21T10:46:19;1.67;;;0.93;;
65375;SDS011;51976;47.332;9.404;2024-02-21T10:48:51;1.10;;;0.40;;
65375;SDS011;51976;47.332;9.404;2024-02-21T10:51:27;0.98;;;0.30;;
65375;SDS011;51976;47.332;9.404;2024-02-21T10:54:02;2.67;;;0.40;;
65375;SDS011;51976;47.332;9.404;2024-02-21T10:56:51;2.25;;;0.60;;
65375;SDS011;51976;47.332;9.404;2024-02-21T10:59:18;1.45;;;0.35;;
65375;SDS011;51976;47.332;9.404;2024-02-21T11:01:45;1.65;;;0.60;;
65375;SDS011;51976;47.332;9.404;2024-02-21T11:04:11;4.03;;;0.73;;
65375;SDS011;51976;47.332;9.404;2024-02-21T11:06:38;2.45;;;0.65;;
65375;SDS011;51976;47.332;9.404;2024-02-21T11:09:08;2.15;;;0.90;;
65375;SDS011;51976;47.332;9.404;2024-02-21T11:11:38;1.58;;;0.55;;
65375;SDS011;51976;47.332;9.404;2024-02-21T11:14:06;1.98;;;0.98;;
65375;SDS011;51976;47.332;9.404;2024-02-21T11:16:39;2.45;;;0.80;;
65375;SDS011;51976;47.332;9.404;2024-02-21T11:19:09;1.50;;;0.85;;
65375;SDS011;51976;47.332;9.404;2024-02-21T11:21:44;2.00;;;0.65;;
65375;SDS011;51976;47.332;9.404;2024-02-21T11:24:09;1.20;;;0.70;;
65375;SDS011;51976;47.332;9.404;2024-02-21T11:26:36;2.30;;;0.75;;
65375;SDS011;51976;47.332;9.404;2024-02-21T11:29:02;1.30;;;0.80;;
65375;SDS011;51976;47.332;9.404;2024-02-21T11:31:40;0.70;;;0.40;;
65375;SDS011;51976;47.332;9.404;2024-02-21T11:34:09;2.03;;;0.98;;
65375;SDS011;51976;47.332;9.404;2024-02-21T11:36:36;1.10;;;0.60;;
65375;SDS011;51976;47.332;9.404;2024-02-21T11:39:10;1.23;;;0.60;;
65375;SDS011;51976;47.332;9.404;2024-02-21T11:41:36;4.97;;;1.92;;
65375;SDS011;51976;47.332;9.404;2024-02-21T11:44:01;7.40;;;1.58;;
65375;SDS011;51976;47.332;9.404;2024-02-21T11:46:27;4.72;;;2.05;;
65375;SDS011;51976;47.332;9.404;2024-02-21T11:48:52;6.85;;;3.13;;
65375;SDS011;51976;47.332;9.404;2024-02-21T11:51:21;7.32;;;3.35;;
65375;SDS011;51976;47.332;9.404;2024-02-21T11:53:50;9.18;;;4.50;;
65375;SDS011;51976;47.332;9.404;2024-02-21T11:56:17;7.13;;;3.53;;
65375;SDS011;51976;47.332;9.404;2024-02-21T11:58:43;6.43;;;3.38;;
65375;SDS011;51976;47.332;9.404;2024-02-21T12:01:08;4.00;;;1.38;;
65375;SDS011;51976;47.332;9.404;2024-02-21T12:03:34;5.68;;;2.28;;
65375;SDS011;51976;47.332;9.404;2024-02-21T12:06:01;6.47;;;3.22;;
65375;SDS011;51976;47.332;9.404;2024-02-21T12:08:28;4.68;;;1.88;;
65375;SDS011;51976;47.332;9.404;2024-02-21T12:11:15;4.00;;;1.90;;
65375;SDS011;51976;47.332;9.404;2024-02-21T12:13:47;2.80;;;1.55;;
65375;SDS011;51976;47.332;9.404;2024-02-21T12:16:15;2.17;;;0.90;;
65375;SDS011;51976;47.332;9.404;2024-02-21T12:18:43;2.03;;;1.17;;
65375;SDS011;51976;47.332;9.404;2024-02-21T12:21:09;2.47;;;1.38;;
65375;SDS011;51976;47.332;9.404;2024-02-21T12:23:40;5.03;;;1.92;;
65375;SDS011;51976;47.332;9.404;2024-02-21T12:26:06;3.67;;;1.10;;
65375;SDS011;51976;47.332;9.404;2024-02-21T12:28:33;4.07;;;1.85;;
65375;SDS011;51976;47.332;9.404;2024-02-21T12:31:01;2.13;;;1.00;;
65375;SDS011;51976;47.332;9.404;2024-02-21T12:33:29;2.80;;;1.63;;
65375;SDS011;51976;47.332;9.404;2024-02-21T12:35:55;3.15;;;1.35;;
65375;SDS011;51976;47.332;9.404;2024-02-21T12:38:21;3.78;;;1.70;;
65375;SDS011;51976;47.332;9.404;2024-02-21T12:40:46;3.80;;;1.65;;
65375;SDS011;51976;47.332;9.404;2024-02-21T12:43:11;3.45;;;1.40;;
65375;SDS011;51976;47.332;9.404;2024-02-21T12:45:37;3.03;;;0.90;;
65375;SDS011;51976;47.332;9.404;2024-02-21T12:48:03;1.70;;;0.82;;
65375;SDS011;51976;47.332;9.404;2024-02-21T12:50:29;1.23;;;0.60;;
65375;SDS011;51976;47.332;9.404;2024-02-21T12:52:56;2.20;;;0.93;;
65375;SDS011;51976;47.332;9.404;2024-02-21T12:55:23;1.73;;;0.95;;
65375;SDS011;51976;47.332;9.404;2024-02-21T12:57:48;2.67;;;0.70;;
65375;SDS011;51976;47.332;9.404;2024-02-21T13:00:14;1.70;;;0.90;;
65375;SDS011;51976;47.332;9.404;2024-02-21T13:02:40;1.98;;;0.88;;
65375;SDS011;51976;47.332;9.404;2024-02-21T13:05:06;1.98;;;0.80;;
65375;SDS011;51976;47.332;9.404;2024-02-21T13:07:32;3.75;;;1.30;;
65375;SDS011;51976;47.332;9.404;2024-02-21T13:09:58;1.35;;;0.95;;
65375;SDS011;51976;47.332;9.404;2024-02-21T13:12:23;1.92;;;0.90;;
65375;SDS011;51976;47.332;9.404;2024-02-21T13:14:51;3.47;;;1.20;;
65375;SDS011;51976;47.332;9.404;2024-02-21T13:17:16;4.68;;;1.08;;
65375;SDS011;51976;47.332;9.404;2024-02-21T13:19:42;2.83;;;1.35;;
65375;SDS011;51976;47.332;9.404;2024-02-21T13:22:08;6.38;;;2.88;;
65375;SDS011;51976;47.332;9.404;2024-02-21T13:24:34;5.35;;;3.00;;
65375;SDS011;51976;47.332;9.404;2024-02-21T13:26:59;2.80;;;1.38;;
65375;SDS011;51976;47.332;9.404;2024-02-21T13:29:34;9.53;;;2.50;;
65375;SDS011;51976;47.332;9.404;2024-02-21T13:31:59;3.70;;;1.65;;
65375;SDS011;51976;47.332;9.404;2024-02-21T13:34:28;3.17;;;2.00;;
65375;SDS011;51976;47.332;9.404;2024-02-21T13:36:56;3.38;;;1.45;;
65375;SDS011;51976;47.332;9.404;2024-02-21T13:41:59;8.98;;;1.63;;
65375;SDS011;51976;47.332;9.404;2024-02-21T13:47:41;3.55;;;1.50;;
65375;SDS011;51976;47.332;9.404;2024-02-21T13:50:06;3.55;;;1.55;;
65375;SDS011;51976;47.332;9.404;2024-02-21T13:52:35;4.65;;;1.40;;
65375;SDS011;51976;47.332;9.404;2024-02-21T13:55:01;1.52;;;1.00;;
65375;SDS011;51976;47.332;9.404;2024-02-21T13:57:29;2.70;;;1.42;;
65375;SDS011;51976;47.332;9.404;2024-02-21T13:59:55;1.92;;;1.10;;
65375;SDS011;51976;47.332;9.404;2024-02-21T14:02:20;2.05;;;0.95;;
65375;SDS011;51976;47.332;9.404;2024-02-21T14:04:46;2.85;;;1.73;;
65375;SDS011;51976;47.332;9.404;2024-02-21T14:07:12;2.95;;;1.38;;
65375;SDS011;51976;47.332;9.404;2024-02-21T14:09:38;3.10;;;1.20;;
65375;SDS011;51976;47.332;9.404;2024-02-21T14:12:03;2.30;;;0.93;;
65375;SDS011;51976;47.332;9.404;2024-02-21T14:14:33;2.03;;;1.05;;
65375;SDS011;51976;47.332;9.404;2024-02-21T14:16:59;3.58;;;1.00;;
65375;SDS011;51976;47.332;9.404;2024-02-21T14:19:26;3.30;;;0.98;;
65375;SDS011;51976;47.332;9.404;2024-02-21T14:21:54;2.85;;;1.05;;
65375;SDS011;51976;47.332;9.404;2024-02-21T14:24:19;1.83;;;1.08;;
65375;SDS011;51976;47.332;9.404;2024-02-21T14:26:44;1.65;;;1.00;;
65375;SDS011;51976;47.332;9.404;2024-02-21T14:29:10;4.32;;;1.33;;
65375;SDS011;51976;47.332;9.404;2024-02-21T14:31:37;2.53;;;1.00;;
65375;SDS011;51976;47.332;9.404;2024-02-21T14:34:03;2.20;;;1.17;;
65375;SDS011;51976;47.332;9.404;2024-02-21T14:36:28;2.95;;;1.55;;
65375;SDS011;51976;47.332;9.404;2024-02-21T14:38:54;2.20;;;0.88;;
65375;SDS011;51976;47.332;9.404;2024-02-21T14:41:22;2.83;;;1.23;;
65375;SDS011;51976;47.332;9.404;2024-02-21T14:43:47;2.53;;;0.90;;
65375;SDS011;51976;47.332;9.404;2024-02-21T14:46:13;2.08;;;0.90;;
65375;SDS011;51976;47.332;9.404;2024-02-21T14:48:38;2.08;;;0.90;;
65375;SDS011;51976;47.332;9.404;2024-02-21T14:51:04;1.45;;;0.73;;